sensor_id;sensor_type;location;lat;lon;timestamp;P1;durP1;ratioP1;P2;durP2;ratioP2
67869;SDS011;54673;52.262;6.830;2022-11-13T00:02:10;3.72;;;2.70;;
67869;SDS011;54673;52.262;6.830;2022-11-13T00:04:35;4.20;;;2.97;;
67869;SDS011;54673;52.262;6.830;2022-11-13T00:07:01;5.73;;;2.70;;
67869;SDS011;54673;52.262;6.830;2022-11-13T00:09:26;4.88;;;2.88;;
67869;SDS011;54673;52.262;6.830;2022-11-13T00:11:52;6.07;;;3.13;;
67869;SDS011;54673;52.262;6.830;2022-11-13T00:14:17;4.10;;;3.00;;
67869;SDS011;54673;52.262;6.830;2022-11-13T00:16:43;4.57;;;3.23;;
67869;SDS011;54673;52.262;6.830;2022-11-13T00:19:09;4.07;;;3.10;;
67869;SDS011;54673;52.262;6.830;2022-11-13T00:21:34;5.53;;;3.40;;
67869;SDS011;54673;52.262;6.830;2022-11-13T00:24:00;4.80;;;3.03;;
67869;SDS011;54673;52.262;6.830;2022-11-13T00:26:26;3.65;;;2.80;;
67869;SDS011;54673;52.262;6.830;2022-11-13T00:28:55;4.27;;;3.20;;
67869;SDS011;54673;52.262;6.830;2022-11-13T00:31:22;5.05;;;3.00;;
67869;SDS011;54673;52.262;6.830;2022-11-13T00:33:48;4.32;;;3.20;;
67869;SDS011;54673;52.262;6.830;2022-11-13T00:36:21;5.60;;;2.97;;
67869;SDS011;54673;52.262;6.830;2022-11-13T00:38:48;5.32;;;3.10;;
67869;SDS011;54673;52.262;6.830;2022-11-13T00:41:14;4.27;;;3.17;;
67869;SDS011;54673;52.262;6.830;2022-11-13T00:43:40;4.80;;;3.30;;
67869;SDS011;54673;52.262;6.830;2022-11-13T00:46:06;4.43;;;3.30;;
67869;SDS011;54673;52.262;6.830;2022-11-13T00:48:32;4.32;;;3.25;;
67869;SDS011;54673;52.262;6.830;2022-11-13T00:50:58;3.73;;;3.00;;
67869;SDS011;54673;52.262;6.830;2022-11-13T00:53:25;5.65;;;3.55;;
67869;SDS011;54673;52.262;6.830;2022-11-13T00:55:50;3.20;;;2.60;;
67869;SDS011;54673;52.262;6.830;2022-11-13T00:58:16;4.10;;;3.00;;
67869;SDS011;54673;52.262;6.830;2022-11-13T01:00:43;5.05;;;3.28;;
67869;SDS011;54673;52.262;6.830;2022-11-13T01:03:10;4.53;;;3.13;;
67869;SDS011;54673;52.262;6.830;2022-11-13T01:05:37;3.85;;;3.20;;
67869;SDS011;54673;52.262;6.830;2022-11-13T01:08:03;4.83;;;2.97;;
67869;SDS011;54673;52.262;6.830;2022-11-13T01:10:30;4.50;;;3.20;;
67869;SDS011;54673;52.262;6.830;2022-11-13T01:12:57;4.00;;;3.13;;
67869;SDS011;54673;52.262;6.830;2022-11-13T01:15:22;5.97;;;3.37;;
67869;SDS011;54673;52.262;6.830;2022-11-13T01:17:48;3.60;;;2.90;;
67869;SDS011;54673;52.262;6.830;2022-11-13T01:20:15;3.88;;;2.97;;
67869;SDS011;54673;52.262;6.830;2022-11-13T01:22:41;5.38;;;3.80;;
67869;SDS011;54673;52.262;6.830;2022-11-13T01:25:07;4.63;;;3.10;;
67869;SDS011;54673;52.262;6.830;2022-11-13T01:27:34;3.55;;;3.10;;
67869;SDS011;54673;52.262;6.830;2022-11-13T01:30:01;3.47;;;2.87;;
67869;SDS011;54673;52.262;6.830;2022-11-13T01:32:26;3.97;;;2.95;;
67869;SDS011;54673;52.262;6.830;2022-11-13T01:34:52;3.60;;;3.00;;
67869;SDS011;54673;52.262;6.830;2022-11-13T01:37:18;6.75;;;3.53;;
67869;SDS011;54673;52.262;6.830;2022-11-13T01:39:43;3.47;;;2.67;;
67869;SDS011;54673;52.262;6.830;2022-11-13T01:42:09;4.88;;;3.38;;
67869;SDS011;54673;52.262;6.830;2022-11-13T01:44:45;6.03;;;3.10;;
67869;SDS011;54673;52.262;6.830;2022-11-13T01:47:23;4.63;;;3.10;;
67869;SDS011;54673;52.262;6.830;2022-11-13T01:49:50;4.35;;;3.00;;
67869;SDS011;54673;52.262;6.830;2022-11-13T01:52:20;3.63;;;2.95;;
67869;SDS011;54673;52.262;6.830;2022-11-13T01:54:49;6.17;;;2.70;;
67869;SDS011;54673;52.262;6.830;2022-11-13T01:57:18;3.97;;;2.95;;
67869;SDS011;54673;52.262;6.830;2022-11-13T01:59:47;4.73;;;3.30;;
67869;SDS011;54673;52.262;6.830;2022-11-13T02:02:16;4.53;;;3.15;;
67869;SDS011;54673;52.262;6.830;2022-11-13T02:04:42;7.53;;;3.40;;
67869;SDS011;54673;52.262;6.830;2022-11-13T02:07:09;5.15;;;2.60;;
67869;SDS011;54673;52.262;6.830;2022-11-13T02:09:41;5.18;;;3.05;;
67869;SDS011;54673;52.262;6.830;2022-11-13T02:12:11;4.37;;;2.97;;
67869;SDS011;54673;52.262;6.830;2022-11-13T02:14:42;4.75;;;2.97;;
67869;SDS011;54673;52.262;6.830;2022-11-13T02:17:12;3.97;;;3.33;;
67869;SDS011;54673;52.262;6.830;2022-11-13T02:19:43;4.22;;;3.30;;
67869;SDS011;54673;52.262;6.830;2022-11-13T02:24:46;4.70;;;2.73;;
67869;SDS011;54673;52.262;6.830;2022-11-13T02:27:26;3.67;;;2.90;;
67869;SDS011;54673;52.262;6.830;2022-11-13T02:30:15;3.87;;;3.13;;
67869;SDS011;54673;52.262;6.830;2022-11-13T02:32:47;4.43;;;2.60;;
67869;SDS011;54673;52.262;6.830;2022-11-13T02:35:19;3.58;;;2.55;;
67869;SDS011;54673;52.262;6.830;2022-11-13T02:37:50;4.27;;;3.00;;
67869;SDS011;54673;52.262;6.830;2022-11-13T02:40:16;4.68;;;3.00;;
67869;SDS011;54673;52.262;6.830;2022-11-13T02:42:42;5.87;;;3.30;;
67869;SDS011;54673;52.262;6.830;2022-11-13T02:45:08;4.93;;;3.20;;
67869;SDS011;54673;52.262;6.830;2022-11-13T02:47:34;5.97;;;3.20;;
67869;SDS011;54673;52.262;6.830;2022-11-13T02:50:00;3.72;;;3.00;;
67869;SDS011;54673;52.262;6.830;2022-11-13T02:52:26;3.72;;;2.70;;
67869;SDS011;54673;52.262;6.830;2022-11-13T02:54:51;3.93;;;2.70;;
67869;SDS011;54673;52.262;6.830;2022-11-13T02:57:17;3.45;;;2.72;;
67869;SDS011;54673;52.262;6.830;2022-11-13T02:59:43;3.80;;;2.60;;
67869;SDS011;54673;52.262;6.830;2022-11-13T03:02:09;4.80;;;2.85;;
67869;SDS011;54673;52.262;6.830;2022-11-13T03:04:35;3.13;;;2.63;;
67869;SDS011;54673;52.262;6.830;2022-11-13T03:07:01;3.45;;;2.65;;
67869;SDS011;54673;52.262;6.830;2022-11-13T03:09:26;4.33;;;3.03;;
67869;SDS011;54673;52.262;6.830;2022-11-13T03:11:52;5.17;;;2.73;;
67869;SDS011;54673;52.262;6.830;2022-11-13T03:14:17;6.57;;;2.90;;
67869;SDS011;54673;52.262;6.830;2022-11-13T03:16:43;3.17;;;2.80;;
67869;SDS011;54673;52.262;6.830;2022-11-13T03:19:08;3.17;;;2.28;;
67869;SDS011;54673;52.262;6.830;2022-11-13T03:21:34;3.57;;;2.50;;
67869;SDS011;54673;52.262;6.830;2022-11-13T03:24:00;5.63;;;2.80;;
67869;SDS011;54673;52.262;6.830;2022-11-13T03:26:25;3.35;;;2.67;;
67869;SDS011;54673;52.262;6.830;2022-11-13T03:28:54;3.60;;;2.83;;
67869;SDS011;54673;52.262;6.830;2022-11-13T03:31:20;3.67;;;3.00;;
67869;SDS011;54673;52.262;6.830;2022-11-13T03:33:46;4.90;;;2.47;;
67869;SDS011;54673;52.262;6.830;2022-11-13T03:36:11;3.00;;;2.50;;
67869;SDS011;54673;52.262;6.830;2022-11-13T03:38:37;3.50;;;2.70;;
67869;SDS011;54673;52.262;6.830;2022-11-13T03:41:02;3.25;;;2.60;;
67869;SDS011;54673;52.262;6.830;2022-11-13T03:43:28;3.73;;;2.80;;
67869;SDS011;54673;52.262;6.830;2022-11-13T03:45:54;3.92;;;2.72;;
67869;SDS011;54673;52.262;6.830;2022-11-13T03:48:20;3.77;;;2.87;;
67869;SDS011;54673;52.262;6.830;2022-11-13T03:50:47;3.65;;;2.70;;
67869;SDS011;54673;52.262;6.830;2022-11-13T03:53:16;4.97;;;3.03;;
67869;SDS011;54673;52.262;6.830;2022-11-13T03:55:42;3.93;;;2.80;;
67869;SDS011;54673;52.262;6.830;2022-11-13T03:58:08;4.10;;;3.25;;
67869;SDS011;54673;52.262;6.830;2022-11-13T04:00:34;3.23;;;2.67;;
67869;SDS011;54673;52.262;6.830;2022-11-13T04:03:00;4.32;;;2.88;;
67869;SDS011;54673;52.262;6.830;2022-11-13T04:05:26;4.90;;;3.10;;
67869;SDS011;54673;52.262;6.830;2022-11-13T04:07:51;3.90;;;2.88;;
67869;SDS011;54673;52.262;6.830;2022-11-13T04:10:17;3.80;;;2.97;;
67869;SDS011;54673;52.262;6.830;2022-11-13T04:12:43;4.30;;;3.00;;
67869;SDS011;54673;52.262;6.830;2022-11-13T04:15:09;3.50;;;2.80;;
67869;SDS011;54673;52.262;6.830;2022-11-13T04:17:34;4.20;;;2.90;;
67869;SDS011;54673;52.262;6.830;2022-11-13T04:20:01;4.20;;;3.03;;
67869;SDS011;54673;52.262;6.830;2022-11-13T04:22:26;3.83;;;2.60;;
67869;SDS011;54673;52.262;6.830;2022-11-13T04:24:52;3.73;;;2.97;;
67869;SDS011;54673;52.262;6.830;2022-11-13T04:27:17;3.93;;;2.80;;
67869;SDS011;54673;52.262;6.830;2022-11-13T04:29:43;4.47;;;2.92;;
67869;SDS011;54673;52.262;6.830;2022-11-13T04:32:09;4.77;;;3.27;;
67869;SDS011;54673;52.262;6.830;2022-11-13T04:34:34;3.50;;;2.67;;
67869;SDS011;54673;52.262;6.830;2022-11-13T04:37:00;4.20;;;3.00;;
67869;SDS011;54673;52.262;6.830;2022-11-13T04:39:25;3.23;;;2.60;;
67869;SDS011;54673;52.262;6.830;2022-11-13T04:41:51;3.63;;;2.72;;
67869;SDS011;54673;52.262;6.830;2022-11-13T04:44:35;3.73;;;2.80;;
67869;SDS011;54673;52.262;6.830;2022-11-13T04:47:00;3.42;;;2.85;;
67869;SDS011;54673;52.262;6.830;2022-11-13T04:49:26;4.30;;;3.10;;
67869;SDS011;54673;52.262;6.830;2022-11-13T04:51:52;4.10;;;2.87;;
67869;SDS011;54673;52.262;6.830;2022-11-13T04:54:17;4.57;;;2.88;;
67869;SDS011;54673;52.262;6.830;2022-11-13T04:56:43;4.83;;;3.20;;
67869;SDS011;54673;52.262;6.830;2022-11-13T04:59:08;3.20;;;2.67;;
67869;SDS011;54673;52.262;6.830;2022-11-13T05:01:34;3.30;;;2.85;;
67869;SDS011;54673;52.262;6.830;2022-11-13T05:04:00;3.67;;;2.93;;
67869;SDS011;54673;52.262;6.830;2022-11-13T05:06:26;4.22;;;2.88;;
67869;SDS011;54673;52.262;6.830;2022-11-13T05:08:51;4.40;;;2.90;;
67869;SDS011;54673;52.262;6.830;2022-11-13T05:11:17;4.03;;;2.83;;
67869;SDS011;54673;52.262;6.830;2022-11-13T05:13:43;4.03;;;2.87;;
67869;SDS011;54673;52.262;6.830;2022-11-13T05:16:09;3.33;;;2.70;;
67869;SDS011;54673;52.262;6.830;2022-11-13T05:18:37;3.43;;;2.80;;
67869;SDS011;54673;52.262;6.830;2022-11-13T05:21:04;3.58;;;2.90;;
67869;SDS011;54673;52.262;6.830;2022-11-13T05:23:31;3.90;;;2.97;;
67869;SDS011;54673;52.262;6.830;2022-11-13T05:26:07;4.37;;;2.83;;
67869;SDS011;54673;52.262;6.830;2022-11-13T05:28:35;3.60;;;2.90;;
67869;SDS011;54673;52.262;6.830;2022-11-13T05:31:02;3.97;;;3.20;;
67869;SDS011;54673;52.262;6.830;2022-11-13T05:33:29;3.95;;;2.97;;
67869;SDS011;54673;52.262;6.830;2022-11-13T05:35:54;4.70;;;2.67;;
67869;SDS011;54673;52.262;6.830;2022-11-13T05:38:24;3.00;;;2.60;;
67869;SDS011;54673;52.262;6.830;2022-11-13T05:40:49;3.20;;;2.50;;
67869;SDS011;54673;52.262;6.830;2022-11-13T05:43:15;4.05;;;2.80;;
67869;SDS011;54673;52.262;6.830;2022-11-13T05:45:41;3.03;;;2.47;;
67869;SDS011;54673;52.262;6.830;2022-11-13T05:48:06;3.90;;;3.10;;
67869;SDS011;54673;52.262;6.830;2022-11-13T05:50:32;3.50;;;2.40;;
67869;SDS011;54673;52.262;6.830;2022-11-13T05:52:57;3.47;;;2.50;;
67869;SDS011;54673;52.262;6.830;2022-11-13T05:55:23;4.07;;;2.60;;
67869;SDS011;54673;52.262;6.830;2022-11-13T05:57:48;3.40;;;2.50;;
67869;SDS011;54673;52.262;6.830;2022-11-13T06:00:14;4.65;;;2.90;;
67869;SDS011;54673;52.262;6.830;2022-11-13T06:02:40;3.60;;;2.93;;
67869;SDS011;54673;52.262;6.830;2022-11-13T06:05:06;4.10;;;2.57;;
67869;SDS011;54673;52.262;6.830;2022-11-13T06:07:32;3.00;;;2.47;;
67869;SDS011;54673;52.262;6.830;2022-11-13T06:09:57;3.97;;;2.70;;
67869;SDS011;54673;52.262;6.830;2022-11-13T06:12:23;3.80;;;2.63;;
67869;SDS011;54673;52.262;6.830;2022-11-13T06:14:48;3.57;;;2.80;;
67869;SDS011;54673;52.262;6.830;2022-11-13T06:17:14;3.10;;;2.45;;
67869;SDS011;54673;52.262;6.830;2022-11-13T06:19:40;3.03;;;2.47;;
67869;SDS011;54673;52.262;6.830;2022-11-13T06:22:05;3.30;;;2.57;;
67869;SDS011;54673;52.262;6.830;2022-11-13T06:24:31;3.75;;;2.30;;
67869;SDS011;54673;52.262;6.830;2022-11-13T06:26:56;3.60;;;3.00;;
67869;SDS011;54673;52.262;6.830;2022-11-13T06:29:22;3.07;;;2.50;;
67869;SDS011;54673;52.262;6.830;2022-11-13T06:31:48;3.92;;;2.55;;
67869;SDS011;54673;52.262;6.830;2022-11-13T06:34:13;3.67;;;2.57;;
67869;SDS011;54673;52.262;6.830;2022-11-13T06:36:39;3.03;;;2.60;;
67869;SDS011;54673;52.262;6.830;2022-11-13T06:39:05;3.47;;;2.60;;
67869;SDS011;54673;52.262;6.830;2022-11-13T06:41:32;5.05;;;2.60;;
67869;SDS011;54673;52.262;6.830;2022-11-13T06:43:58;3.73;;;2.83;;
67869;SDS011;54673;52.262;6.830;2022-11-13T06:46:26;3.75;;;2.50;;
67869;SDS011;54673;52.262;6.830;2022-11-13T06:48:52;4.25;;;3.13;;
67869;SDS011;54673;52.262;6.830;2022-11-13T06:51:22;2.93;;;2.40;;
67869;SDS011;54673;52.262;6.830;2022-11-13T06:53:49;6.28;;;2.90;;
67869;SDS011;54673;52.262;6.830;2022-11-13T06:56:15;2.87;;;2.50;;
67869;SDS011;54673;52.262;6.830;2022-11-13T06:58:41;3.65;;;2.95;;
67869;SDS011;54673;52.262;6.830;2022-11-13T07:01:14;4.40;;;2.67;;
67869;SDS011;54673;52.262;6.830;2022-11-13T07:03:41;4.43;;;2.72;;
67869;SDS011;54673;52.262;6.830;2022-11-13T07:06:09;3.67;;;2.80;;
67869;SDS011;54673;52.262;6.830;2022-11-13T07:08:42;3.43;;;2.53;;
67869;SDS011;54673;52.262;6.830;2022-11-13T07:11:09;2.70;;;2.20;;
67869;SDS011;54673;52.262;6.830;2022-11-13T07:13:37;3.23;;;2.47;;
67869;SDS011;54673;52.262;6.830;2022-11-13T07:16:03;3.88;;;2.63;;
67869;SDS011;54673;52.262;6.830;2022-11-13T07:18:30;2.80;;;2.50;;
67869;SDS011;54673;52.262;6.830;2022-11-13T07:20:57;3.50;;;2.63;;
67869;SDS011;54673;52.262;6.830;2022-11-13T07:23:23;3.13;;;2.50;;
67869;SDS011;54673;52.262;6.830;2022-11-13T07:25:51;2.97;;;2.40;;
67869;SDS011;54673;52.262;6.830;2022-11-13T07:28:18;4.05;;;2.35;;
67869;SDS011;54673;52.262;6.830;2022-11-13T07:30:44;3.00;;;2.50;;
67869;SDS011;54673;52.262;6.830;2022-11-13T07:33:10;4.07;;;2.50;;
67869;SDS011;54673;52.262;6.830;2022-11-13T07:35:36;3.60;;;2.70;;
67869;SDS011;54673;52.262;6.830;2022-11-13T07:38:01;4.13;;;2.53;;
67869;SDS011;54673;52.262;6.830;2022-11-13T07:40:27;3.30;;;2.42;;
67869;SDS011;54673;52.262;6.830;2022-11-13T07:42:56;2.80;;;2.50;;
67869;SDS011;54673;52.262;6.830;2022-11-13T07:45:23;2.80;;;2.33;;
67869;SDS011;54673;52.262;6.830;2022-11-13T07:47:49;3.17;;;2.40;;
67869;SDS011;54673;52.262;6.830;2022-11-13T07:50:15;3.00;;;2.35;;
67869;SDS011;54673;52.262;6.830;2022-11-13T07:52:41;2.83;;;2.23;;
67869;SDS011;54673;52.262;6.830;2022-11-13T07:55:07;3.95;;;2.63;;
67869;SDS011;54673;52.262;6.830;2022-11-13T07:57:32;4.30;;;2.93;;
67869;SDS011;54673;52.262;6.830;2022-11-13T07:59:58;3.65;;;2.53;;
67869;SDS011;54673;52.262;6.830;2022-11-13T08:02:23;2.80;;;2.37;;
67869;SDS011;54673;52.262;6.830;2022-11-13T08:04:50;4.88;;;3.05;;
67869;SDS011;54673;52.262;6.830;2022-11-13T08:07:15;3.87;;;2.70;;
67869;SDS011;54673;52.262;6.830;2022-11-13T08:09:41;4.57;;;3.33;;
67869;SDS011;54673;52.262;6.830;2022-11-13T08:12:06;3.23;;;2.93;;
67869;SDS011;54673;52.262;6.830;2022-11-13T08:14:32;3.50;;;2.80;;
67869;SDS011;54673;52.262;6.830;2022-11-13T08:16:57;3.13;;;2.60;;
67869;SDS011;54673;52.262;6.830;2022-11-13T08:19:23;2.67;;;2.27;;
67869;SDS011;54673;52.262;6.830;2022-11-13T08:21:48;2.93;;;2.30;;
67869;SDS011;54673;52.262;6.830;2022-11-13T08:24:14;3.13;;;2.40;;
67869;SDS011;54673;52.262;6.830;2022-11-13T08:26:39;2.90;;;2.50;;
67869;SDS011;54673;52.262;6.830;2022-11-13T08:29:05;3.30;;;2.40;;
67869;SDS011;54673;52.262;6.830;2022-11-13T08:31:31;3.05;;;2.40;;
67869;SDS011;54673;52.262;6.830;2022-11-13T08:33:56;3.17;;;2.33;;
67869;SDS011;54673;52.262;6.830;2022-11-13T08:36:23;3.70;;;2.63;;
67869;SDS011;54673;52.262;6.830;2022-11-13T08:38:49;3.83;;;2.47;;
67869;SDS011;54673;52.262;6.830;2022-11-13T08:41:15;2.72;;;2.38;;
67869;SDS011;54673;52.262;6.830;2022-11-13T08:43:40;8.17;;;3.27;;
67869;SDS011;54673;52.262;6.830;2022-11-13T08:46:06;5.25;;;3.10;;
67869;SDS011;54673;52.262;6.830;2022-11-13T08:48:32;6.23;;;2.57;;
67869;SDS011;54673;52.262;6.830;2022-11-13T08:50:57;5.72;;;3.28;;
67869;SDS011;54673;52.262;6.830;2022-11-13T08:53:23;6.50;;;3.53;;
67869;SDS011;54673;52.262;6.830;2022-11-13T08:55:49;5.18;;;3.30;;
67869;SDS011;54673;52.262;6.830;2022-11-13T08:58:15;4.50;;;3.30;;
67869;SDS011;54673;52.262;6.830;2022-11-13T09:00:41;3.80;;;2.90;;
67869;SDS011;54673;52.262;6.830;2022-11-13T09:03:08;3.67;;;3.07;;
67869;SDS011;54673;52.262;6.830;2022-11-13T09:05:35;3.90;;;3.10;;
67869;SDS011;54673;52.262;6.830;2022-11-13T09:08:01;4.13;;;3.30;;
67869;SDS011;54673;52.262;6.830;2022-11-13T09:10:27;5.10;;;3.20;;
67869;SDS011;54673;52.262;6.830;2022-11-13T09:13:00;8.20;;;3.67;;
67869;SDS011;54673;52.262;6.830;2022-11-13T09:15:27;3.90;;;3.50;;
67869;SDS011;54673;52.262;6.830;2022-11-13T09:17:55;5.35;;;3.10;;
67869;SDS011;54673;52.262;6.830;2022-11-13T09:20:24;4.97;;;3.40;;
67869;SDS011;54673;52.262;6.830;2022-11-13T09:22:55;5.72;;;3.22;;
67869;SDS011;54673;52.262;6.830;2022-11-13T09:25:25;6.17;;;3.40;;
67869;SDS011;54673;52.262;6.830;2022-11-13T09:27:52;4.90;;;3.20;;
67869;SDS011;54673;52.262;6.830;2022-11-13T09:30:23;6.07;;;3.10;;
67869;SDS011;54673;52.262;6.830;2022-11-13T09:32:56;3.80;;;3.03;;
67869;SDS011;54673;52.262;6.830;2022-11-13T09:35:23;5.93;;;2.97;;
67869;SDS011;54673;52.262;6.830;2022-11-13T09:38:00;8.27;;;3.17;;
67869;SDS011;54673;52.262;6.830;2022-11-13T09:40:29;4.30;;;2.50;;
67869;SDS011;54673;52.262;6.830;2022-11-13T09:42:59;5.15;;;2.63;;
67869;SDS011;54673;52.262;6.830;2022-11-13T09:45:28;3.93;;;3.10;;
67869;SDS011;54673;52.262;6.830;2022-11-13T09:47:57;5.20;;;3.13;;
67869;SDS011;54673;52.262;6.830;2022-11-13T09:50:41;4.63;;;2.60;;
67869;SDS011;54673;52.262;6.830;2022-11-13T09:53:07;4.70;;;3.40;;
67869;SDS011;54673;52.262;6.830;2022-11-13T09:55:37;3.33;;;2.80;;
67869;SDS011;54673;52.262;6.830;2022-11-13T10:00:39;3.35;;;2.42;;
67869;SDS011;54673;52.262;6.830;2022-11-13T10:06:12;4.75;;;2.60;;
67869;SDS011;54673;52.262;6.830;2022-11-13T10:08:56;6.10;;;3.13;;
67869;SDS011;54673;52.262;6.830;2022-11-13T10:14:16;3.45;;;2.55;;
67869;SDS011;54673;52.262;6.830;2022-11-13T10:16:47;4.23;;;2.63;;
67869;SDS011;54673;52.262;6.830;2022-11-13T10:19:36;7.88;;;2.67;;
67869;SDS011;54673;52.262;6.830;2022-11-13T10:22:14;5.00;;;2.80;;
67869;SDS011;54673;52.262;6.830;2022-11-13T10:24:45;3.78;;;2.20;;
67869;SDS011;54673;52.262;6.830;2022-11-13T10:27:15;3.38;;;2.10;;
67869;SDS011;54673;52.262;6.830;2022-11-13T10:29:40;3.20;;;2.20;;
67869;SDS011;54673;52.262;6.830;2022-11-13T10:34:49;3.17;;;2.10;;
67869;SDS011;54673;52.262;6.830;2022-11-13T10:39:48;7.03;;;2.20;;
67869;SDS011;54673;52.262;6.830;2022-11-13T10:42:27;15.43;;;2.35;;
67869;SDS011;54673;52.262;6.830;2022-11-13T10:44:57;2.60;;;1.80;;
67869;SDS011;54673;52.262;6.830;2022-11-13T10:47:25;3.20;;;2.05;;
67869;SDS011;54673;52.262;6.830;2022-11-13T10:49:54;5.43;;;1.92;;
67869;SDS011;54673;52.262;6.830;2022-11-13T10:52:26;3.90;;;2.00;;
67869;SDS011;54673;52.262;6.830;2022-11-13T10:57:58;6.00;;;2.03;;
67869;SDS011;54673;52.262;6.830;2022-11-13T11:02:51;4.53;;;1.87;;
67869;SDS011;54673;52.262;6.830;2022-11-13T11:05:18;2.72;;;1.88;;
67869;SDS011;54673;52.262;6.830;2022-11-13T11:07:46;2.90;;;1.70;;
67869;SDS011;54673;52.262;6.830;2022-11-13T11:13:19;2.50;;;1.52;;
67869;SDS011;54673;52.262;6.830;2022-11-13T11:15:50;2.03;;;1.63;;
67869;SDS011;54673;52.262;6.830;2022-11-13T11:21:08;1.93;;;1.73;;
67869;SDS011;54673;52.262;6.830;2022-11-13T11:26:17;2.20;;;1.63;;
67869;SDS011;54673;52.262;6.830;2022-11-13T11:29:02;2.20;;;1.70;;
67869;SDS011;54673;52.262;6.830;2022-11-13T11:31:57;1.80;;;1.60;;
67869;SDS011;54673;52.262;6.830;2022-11-13T11:34:45;1.83;;;1.50;;
67869;SDS011;54673;52.262;6.830;2022-11-13T11:37:26;3.85;;;1.73;;
67869;SDS011;54673;52.262;6.830;2022-11-13T11:40:00;6.30;;;1.90;;
67869;SDS011;54673;52.262;6.830;2022-11-13T11:45:11;5.80;;;1.80;;
67869;SDS011;54673;52.262;6.830;2022-11-13T11:47:58;2.03;;;1.63;;
67869;SDS011;54673;52.262;6.830;2022-11-13T11:50:38;1.70;;;1.40;;
67869;SDS011;54673;52.262;6.830;2022-11-13T11:53:47;2.23;;;1.40;;
67869;SDS011;54673;52.262;6.830;2022-11-13T11:59:22;2.00;;;1.60;;
67869;SDS011;54673;52.262;6.830;2022-11-13T12:10:03;1.70;;;1.30;;
67869;SDS011;54673;52.262;6.830;2022-11-13T12:15:27;2.00;;;1.57;;
67869;SDS011;54673;52.262;6.830;2022-11-13T12:20:49;1.83;;;1.10;;
67869;SDS011;54673;52.262;6.830;2022-11-13T12:26:36;3.33;;;1.90;;
67869;SDS011;54673;52.262;6.830;2022-11-13T12:29:27;2.27;;;1.63;;
67869;SDS011;54673;52.262;6.830;2022-11-13T12:32:06;1.80;;;1.45;;
67869;SDS011;54673;52.262;6.830;2022-11-13T12:34:59;1.87;;;1.60;;
67869;SDS011;54673;52.262;6.830;2022-11-13T12:37:32;3.58;;;1.50;;
67869;SDS011;54673;52.262;6.830;2022-11-13T12:40:05;1.75;;;1.42;;
67869;SDS011;54673;52.262;6.830;2022-11-13T12:48:35;1.57;;;1.43;;
67869;SDS011;54673;52.262;6.830;2022-11-13T12:51:00;2.13;;;1.40;;
67869;SDS011;54673;52.262;6.830;2022-11-13T12:53:29;3.13;;;1.25;;
67869;SDS011;54673;52.262;6.830;2022-11-13T12:56:07;3.03;;;1.50;;
67869;SDS011;54673;52.262;6.830;2022-11-13T12:58:53;1.60;;;1.38;;
67869;SDS011;54673;52.262;6.830;2022-11-13T13:01:22;2.43;;;1.60;;
67869;SDS011;54673;52.262;6.830;2022-11-13T13:03:56;2.20;;;1.42;;
67869;SDS011;54673;52.262;6.830;2022-11-13T13:10:06;3.37;;;1.70;;
67869;SDS011;54673;52.262;6.830;2022-11-13T13:15:35;3.40;;;1.17;;
67869;SDS011;54673;52.262;6.830;2022-11-13T13:18:09;2.58;;;1.50;;
67869;SDS011;54673;52.262;6.830;2022-11-13T13:23:03;4.07;;;1.50;;
67869;SDS011;54673;52.262;6.830;2022-11-13T13:27:57;4.63;;;1.60;;
67869;SDS011;54673;52.262;6.830;2022-11-13T13:30:28;2.15;;;1.45;;
67869;SDS011;54673;52.262;6.830;2022-11-13T13:47:34;2.28;;;1.40;;
67869;SDS011;54673;52.262;6.830;2022-11-13T13:50:05;3.27;;;1.40;;
67869;SDS011;54673;52.262;6.830;2022-11-13T13:52:37;1.50;;;1.30;;
67869;SDS011;54673;52.262;6.830;2022-11-13T13:55:04;3.17;;;1.40;;
67869;SDS011;54673;52.262;6.830;2022-11-13T13:57:31;4.00;;;1.50;;
67869;SDS011;54673;52.262;6.830;2022-11-13T13:59:58;2.78;;;1.42;;
67869;SDS011;54673;52.262;6.830;2022-11-13T14:02:24;1.80;;;1.53;;
67869;SDS011;54673;52.262;6.830;2022-11-13T14:04:53;2.58;;;1.48;;
67869;SDS011;54673;52.262;6.830;2022-11-13T14:07:23;3.07;;;1.40;;
67869;SDS011;54673;52.262;6.830;2022-11-13T14:12:32;1.50;;;1.30;;
67869;SDS011;54673;52.262;6.830;2022-11-13T14:14:57;1.80;;;1.30;;
67869;SDS011;54673;52.262;6.830;2022-11-13T14:17:23;2.77;;;1.27;;
67869;SDS011;54673;52.262;6.830;2022-11-13T14:19:49;2.30;;;1.40;;
67869;SDS011;54673;52.262;6.830;2022-11-13T14:22:16;2.33;;;1.60;;
67869;SDS011;54673;52.262;6.830;2022-11-13T14:27:23;3.90;;;1.60;;
67869;SDS011;54673;52.262;6.830;2022-11-13T14:29:58;2.37;;;1.57;;
67869;SDS011;54673;52.262;6.830;2022-11-13T14:32:33;3.28;;;1.63;;
67869;SDS011;54673;52.262;6.830;2022-11-13T14:35:04;2.30;;;1.67;;
67869;SDS011;54673;52.262;6.830;2022-11-13T14:37:32;2.03;;;1.48;;
67869;SDS011;54673;52.262;6.830;2022-11-13T14:40:21;2.40;;;1.50;;
67869;SDS011;54673;52.262;6.830;2022-11-13T14:42:54;2.57;;;2.07;;
67869;SDS011;54673;52.262;6.830;2022-11-13T14:45:25;3.83;;;1.52;;
67869;SDS011;54673;52.262;6.830;2022-11-13T14:47:56;1.80;;;1.40;;
67869;SDS011;54673;52.262;6.830;2022-11-13T14:50:26;3.20;;;1.40;;
67869;SDS011;54673;52.262;6.830;2022-11-13T14:52:59;2.63;;;1.60;;
67869;SDS011;54673;52.262;6.830;2022-11-13T14:55:28;1.73;;;1.13;;
67869;SDS011;54673;52.262;6.830;2022-11-13T14:57:56;2.28;;;1.58;;
67869;SDS011;54673;52.262;6.830;2022-11-13T15:00:26;4.40;;;1.50;;
67869;SDS011;54673;52.262;6.830;2022-11-13T15:02:55;3.25;;;1.65;;
67869;SDS011;54673;52.262;6.830;2022-11-13T15:05:21;1.80;;;1.27;;
67869;SDS011;54673;52.262;6.830;2022-11-13T15:07:47;2.20;;;1.48;;
67869;SDS011;54673;52.262;6.830;2022-11-13T15:10:15;6.10;;;1.48;;
67869;SDS011;54673;52.262;6.830;2022-11-13T15:12:43;4.40;;;1.50;;
67869;SDS011;54673;52.262;6.830;2022-11-13T15:15:12;3.45;;;1.50;;
67869;SDS011;54673;52.262;6.830;2022-11-13T15:17:40;2.40;;;1.40;;
67869;SDS011;54673;52.262;6.830;2022-11-13T15:20:11;2.38;;;1.55;;
67869;SDS011;54673;52.262;6.830;2022-11-13T15:22:39;3.53;;;1.30;;
67869;SDS011;54673;52.262;6.830;2022-11-13T15:25:12;2.85;;;1.42;;
67869;SDS011;54673;52.262;6.830;2022-11-13T15:27:39;1.63;;;1.30;;
67869;SDS011;54673;52.262;6.830;2022-11-13T15:30:05;2.17;;;1.60;;
67869;SDS011;54673;52.262;6.830;2022-11-13T15:32:31;1.90;;;1.23;;
67869;SDS011;54673;52.262;6.830;2022-11-13T15:34:57;1.93;;;1.30;;
67869;SDS011;54673;52.262;6.830;2022-11-13T15:37:23;4.95;;;1.00;;
67869;SDS011;54673;52.262;6.830;2022-11-13T15:39:49;2.80;;;1.17;;
67869;SDS011;54673;52.262;6.830;2022-11-13T15:42:15;2.28;;;1.60;;
67869;SDS011;54673;52.262;6.830;2022-11-13T15:44:42;2.80;;;1.10;;
67869;SDS011;54673;52.262;6.830;2022-11-13T15:47:25;1.60;;;1.10;;
67869;SDS011;54673;52.262;6.830;2022-11-13T15:49:55;1.90;;;1.40;;
67869;SDS011;54673;52.262;6.830;2022-11-13T15:52:21;5.68;;;1.38;;
67869;SDS011;54673;52.262;6.830;2022-11-13T15:54:48;4.43;;;1.40;;
67869;SDS011;54673;52.262;6.830;2022-11-13T15:57:19;1.80;;;1.20;;
67869;SDS011;54673;52.262;6.830;2022-11-13T15:59:47;3.83;;;1.27;;
67869;SDS011;54673;52.262;6.830;2022-11-13T16:02:12;2.40;;;1.17;;
67869;SDS011;54673;52.262;6.830;2022-11-13T16:04:38;1.85;;;1.10;;
67869;SDS011;54673;52.262;6.830;2022-11-13T16:07:11;3.63;;;1.20;;
67869;SDS011;54673;52.262;6.830;2022-11-13T16:09:42;6.80;;;1.50;;
67869;SDS011;54673;52.262;6.830;2022-11-13T16:12:08;2.37;;;1.37;;
67869;SDS011;54673;52.262;6.830;2022-11-13T16:14:35;1.90;;;1.25;;
67869;SDS011;54673;52.262;6.830;2022-11-13T16:17:00;3.57;;;1.20;;
67869;SDS011;54673;52.262;6.830;2022-11-13T16:19:26;2.70;;;1.60;;
67869;SDS011;54673;52.262;6.830;2022-11-13T16:21:52;3.88;;;1.35;;
67869;SDS011;54673;52.262;6.830;2022-11-13T16:24:18;4.80;;;1.40;;
67869;SDS011;54673;52.262;6.830;2022-11-13T16:26:52;2.33;;;1.15;;